Time;durP1;ratioP1;P1;durP2;ratioP2;P2;SDS_P1;SDS_P2;PMS_P1;PMS_P2;Temp;Humidity;BMP_temperature;BMP_pressure;BME280_temperature;BME280_humidity;BME280_pressure;Samples;Min_cycle;Max_cycle;Signal;HPM_P1;HPM_P2
2021/05/11 00:01:54;;;;;;;3.55;1.02;;;14.30;73.30;;;;;;5013033;28;20036;-77
2021/05/11 00:04:20;;;;;;;2.28;0.65;;;14.40;73.30;;;;;;5012717;28;20037;-77
2021/05/11 00:06:46;;;;;;;1.52;0.80;;;14.40;73.20;;;;;;5012966;28;20386;-77
2021/05/11 00:09:11;;;;;;;1.95;0.88;;;14.40;73.00;;;;;;5012907;28;20038;-76
2021/05/11 00:11:37;;;;;;;3.35;0.98;;;14.50;73.00;;;;;;5012869;28;20057;-76
2021/05/11 00:14:06;;;;;;;2.45;1.10;;;14.40;72.80;;;;;;5012892;28;20084;-77
2021/05/11 00:16:32;;;;;;;1.35;1.02;;;14.40;73.20;;;;;;5012686;28;20030;-77
2021/05/11 00:18:59;;;;;;;1.88;1.05;;;14.30;73.70;;;;;;5012740;28;20035;-78
2021/05/11 00:21:24;;;;;;;1.33;1.00;;;14.30;73.70;;;;;;5012617;28;20037;-77
2021/05/11 00:23:50;;;;;;;3.25;0.93;;;14.30;73.70;;;;;;5012727;28;20022;-77
2021/05/11 00:26:15;;;;;;;1.67;0.90;;;14.30;73.60;;;;;;5012502;28;20034;-77
2021/05/11 00:28:41;;;;;;;1.63;1.10;;;14.30;73.50;;;;;;5011894;28;20044;-77
2021/05/11 00:31:06;;;;;;;4.03;0.93;;;14.30;73.50;;;;;;5012613;28;20030;-76
2021/05/11 00:33:32;;;;;;;3.83;0.82;;;14.30;73.40;;;;;;5012526;28;20110;-76
2021/05/11 00:35:57;;;;;;;0.93;0.70;;;14.30;73.60;;;;;;5011258;28;20060;-76
2021/05/11 00:38:23;;;;;;;1.60;1.10;;;14.20;74.10;;;;;;5012498;28;20094;-77
2021/05/11 00:40:48;;;;;;;1.38;0.80;;;14.00;75.00;;;;;;5012491;28;20022;-77
2021/05/11 00:43:14;;;;;;;2.78;0.98;;;13.70;76.20;;;;;;5012202;28;20045;-76
2021/05/11 00:45:39;;;;;;;1.67;1.20;;;13.60;77.10;;;;;;5012166;28;20087;-76
2021/05/11 00:48:05;;;;;;;1.40;0.88;;;13.50;78.00;;;;;;5012377;28;20030;-77
2021/05/11 00:50:31;;;;;;;0.60;0.60;;;13.30;78.60;;;;;;5012139;28;20030;-77
2021/05/11 00:52:56;;;;;;;0.90;0.70;;;13.20;79.20;;;;;;5012410;28;20033;-76
2021/05/11 00:55:22;;;;;;;2.28;0.90;;;13.20;79.40;;;;;;5012108;28;20056;-75
2021/05/11 00:57:48;;;;;;;1.65;0.90;;;13.20;79.40;;;;;;5012094;28;20026;-75
2021/05/11 01:00:15;;;;;;;0.73;0.57;;;13.30;79.40;;;;;;5012015;28;20030;-75
2021/05/11 01:02:40;;;;;;;1.48;0.60;;;13.30;79.10;;;;;;5012046;28;20045;-75
2021/05/11 01:05:06;;;;;;;2.05;0.55;;;13.40;78.80;;;;;;5012027;28;20042;-76
2021/05/11 01:07:33;;;;;;;1.65;0.60;;;13.50;78.40;;;;;;5011992;28;20026;-76
2021/05/11 01:09:58;;;;;;;0.38;0.35;;;13.60;77.90;;;;;;5011931;28;20037;-75
2021/05/11 01:12:24;;;;;;;2.78;0.45;;;13.60;77.40;;;;;;5010613;28;20018;-75
2021/05/11 01:14:52;;;;;;;0.80;0.70;;;13.70;77.20;;;;;;5011793;28;20022;-77
2021/05/11 01:17:23;;;;;;;0.80;0.65;;;13.50;77.70;;;;;;5011835;28;20018;-75
2021/05/11 01:19:51;;;;;;;0.88;0.50;;;13.30;78.40;;;;;;5011939;28;20028;-75
2021/05/11 01:22:31;;;;;;;0.77;0.60;;;13.30;78.80;;;;;;5011815;28;20533;-75
2021/05/11 01:25:08;;;;;;;0.50;0.50;;;13.30;78.70;;;;;;5011653;28;20041;-75
2021/05/11 01:27:44;;;;;;;0.47;0.47;;;13.30;78.90;;;;;;5011301;28;20037;-75
2021/05/11 01:52:20;;;;;;;0.93;0.82;;;13.30;78.30;;;;;;5033886;28;20045;-76
2021/05/11 01:54:56;;;;;;;1.05;0.85;;;13.20;79.10;;;;;;5011064;28;20022;-76
2021/05/11 01:57:49;;;;;;;0.90;0.70;;;13.20;79.10;;;;;;5011093;28;20355;-76
2021/05/11 02:24:50;;;;;;;0.98;0.88;;;13.30;78.70;;;;;;5011033;28;20113;-76
2021/05/11 02:27:15;;;;;;;2.60;0.93;;;13.30;78.60;;;;;;5011439;28;20053;-78
2021/05/11 02:29:41;;;;;;;2.97;1.40;;;13.30;78.50;;;;;;5011007;28;20466;-78
2021/05/11 02:32:07;;;;;;;1.02;0.90;;;13.40;78.50;;;;;;5010755;28;20034;-78
2021/05/11 02:34:32;;;;;;;1.77;1.20;;;13.30;78.50;;;;;;5010678;28;20379;-78
2021/05/11 02:36:58;;;;;;;1.10;0.73;;;13.40;78.60;;;;;;5042417;27;20420;-78
2021/05/11 02:39:23;;;;;;;2.33;1.40;;;13.30;78.70;;;;;;5010603;28;20535;-78
2021/05/11 02:41:49;;;;;;;1.67;1.58;;;13.30;78.70;;;;;;5010706;28;20484;-76
2021/05/11 02:44:17;;;;;;;2.63;1.40;;;13.20;78.80;;;;;;5010258;28;20050;-77
2021/05/11 02:46:43;;;;;;;1.80;1.42;;;13.20;78.80;;;;;;5010366;28;20472;-77
2021/05/11 02:49:09;;;;;;;1.38;1.27;;;13.20;79.00;;;;;;5010440;28;20043;-78
2021/05/11 02:51:34;;;;;;;1.40;1.30;;;13.20;79.10;;;;;;5010014;28;20117;-78
2021/05/11 02:54:00;;;;;;;2.25;1.20;;;13.20;79.10;;;;;;5010444;28;20033;-77
2021/05/11 02:56:26;;;;;;;0.80;0.77;;;13.20;79.10;;;;;;5010395;28;20033;-78
2021/05/11 02:58:51;;;;;;;0.73;0.73;;;13.00;79.60;;;;;;5010346;28;20385;-77
2021/05/11 03:01:17;;;;;;;1.50;0.90;;;13.00;79.60;;;;;;5010107;28;20032;-77
2021/05/11 03:03:43;;;;;;;1.23;0.80;;;13.10;79.60;;;;;;5010312;28;20022;-78
2021/05/11 03:06:10;;;;;;;1.55;1.10;;;13.10;79.50;;;;;;5010260;28;20038;-77
2021/05/11 03:08:35;;;;;;;1.10;1.00;;;13.10;79.40;;;;;;5010104;28;20025;-77
2021/05/11 03:11:01;;;;;;;1.50;1.40;;;13.10;79.20;;;;;;5010063;28;20415;-75
2021/05/11 03:13:26;;;;;;;1.73;1.23;;;13.10;79.20;;;;;;5010128;28;20359;-77
2021/05/11 03:15:52;;;;;;;1.85;1.25;;;13.10;79.30;;;;;;5010284;28;20030;-76
2021/05/11 03:18:18;;;;;;;1.48;1.25;;;13.10;79.10;;;;;;5010179;28;20040;-77
2021/05/11 03:20:44;;;;;;;3.95;1.40;;;13.10;79.10;;;;;;5010209;28;20030;-75
2021/05/11 03:23:09;;;;;;;1.88;1.50;;;13.10;79.10;;;;;;5042030;28;20026;-75
2021/05/11 03:25:35;;;;;;;3.22;1.42;;;13.00;79.20;;;;;;5009974;28;20038;-77
2021/05/11 03:28:00;;;;;;;1.92;1.30;;;13.00;79.50;;;;;;5010093;28;20497;-75
2021/05/11 03:30:26;;;;;;;1.52;1.20;;;13.00;79.50;;;;;;5010009;28;20474;-76
2021/05/11 03:32:52;;;;;;;2.13;1.30;;;13.00;79.50;;;;;;5010114;28;20029;-77
2021/05/11 03:35:17;;;;;;;1.58;1.48;;;13.00;79.50;;;;;;5009894;28;20079;-76
2021/05/11 03:37:43;;;;;;;3.13;2.05;;;13.10;79.60;;;;;;5009998;28;20518;-77
2021/05/11 03:40:09;;;;;;;2.33;1.60;;;13.10;79.50;;;;;;5009890;28;20535;-76
2021/05/11 03:42:39;;;;;;;1.75;1.40;;;13.10;79.40;;;;;;5009577;28;20022;-76
2021/05/11 03:45:07;;;;;;;2.95;2.40;;;13.10;79.30;;;;;;5009766;28;20049;-76
2021/05/11 03:47:44;;;;;;;3.17;2.47;;;13.20;79.20;;;;;;5009544;28;20406;-76
2021/05/11 03:50:14;;;;;;;4.13;2.38;;;13.20;79.10;;;;;;5009697;28;20014;-76
2021/05/11 03:52:41;;;;;;;2.95;2.47;;;13.20;79.10;;;;;;5009714;28;20026;-76
2021/05/11 03:55:07;;;;;;;3.30;2.95;;;13.20;79.20;;;;;;5009739;28;20064;-76
2021/05/11 03:57:33;;;;;;;3.53;2.53;;;13.20;79.20;;;;;;5009547;28;20134;-76
2021/05/11 03:59:58;;;;;;;3.00;2.70;;;13.20;79.20;;;;;;5009579;28;20049;-76
2021/05/11 04:02:24;;;;;;;3.70;3.20;;;13.30;79.40;;;;;;5009535;28;20025;-76
2021/05/11 04:04:49;;;;;;;3.25;2.90;;;13.30;79.10;;;;;;5011611;28;20117;-76
2021/05/11 04:07:15;;;;;;;3.15;2.70;;;13.30;79.10;;;;;;5012971;28;20393;-76
2021/05/11 04:09:46;;;;;;;2.58;2.33;;;13.40;78.80;;;;;;5012877;28;20029;-76
2021/05/11 04:17:43;;;;;;;3.72;3.00;;;13.10;79.70;;;;;;5012856;28;20075;-78
2021/05/11 04:20:10;;;;;;;4.45;3.83;;;13.10;79.80;;;;;;5012884;28;20079;-76
2021/05/11 04:22:36;;;;;;;6.60;5.25;;;13.20;79.80;;;;;;5012641;28;20054;-76
2021/05/11 04:25:02;;;;;;;6.82;4.57;;;13.20;79.80;;;;;;5012522;28;20071;-76
2021/05/11 04:27:28;;;;;;;7.25;4.57;;;13.20;79.80;;;;;;5012628;28;20046;-77
2021/05/11 04:29:58;;;;;;;4.20;3.45;;;13.20;79.90;;;;;;5012568;28;20087;-76
2021/05/11 04:32:24;;;;;;;7.85;5.07;;;13.20;79.70;;;;;;5012431;28;20032;-76
2021/05/11 04:34:50;;;;;;;8.55;6.97;;;13.20;79.70;;;;;;5012510;28;20105;-76
2021/05/11 04:37:15;;;;;;;9.32;6.90;;;13.10;80.20;;;;;;5012416;28;20415;-76
2021/05/11 04:39:41;;;;;;;7.25;5.75;;;13.00;80.90;;;;;;5012398;28;20038;-75
2021/05/11 04:42:07;;;;;;;8.52;7.45;;;13.00;80.80;;;;;;5012419;28;20036;-75
2021/05/11 04:44:33;;;;;;;8.68;6.30;;;13.00;80.90;;;;;;5011899;28;20046;-75
2021/05/11 04:47:06;;;;;;;9.18;8.05;;;13.10;80.90;;;;;;5012189;28;20030;-76
2021/05/11 04:49:31;;;;;;;9.45;7.93;;;13.00;81.60;;;;;;5044381;27;20030;-76
2021/05/11 04:51:58;;;;;;;8.65;6.43;;;13.00;81.00;;;;;;5012799;28;20427;-77
2021/05/11 04:54:24;;;;;;;9.02;5.90;;;13.10;80.90;;;;;;5012231;28;20155;-76
2021/05/11 04:56:50;;;;;;;10.25;8.15;;;13.10;80.70;;;;;;5012108;28;20482;-76
2021/05/11 04:59:16;;;;;;;7.32;6.40;;;13.10;81.50;;;;;;5012514;28;20030;-77
2021/05/11 05:01:44;;;;;;;12.45;6.43;;;13.10;80.70;;;;;;5012921;28;20044;-75
2021/05/11 05:04:11;;;;;;;7.40;6.07;;;13.10;81.40;;;;;;5011915;28;20118;-76
2021/05/11 05:06:37;;;;;;;5.85;5.10;;;13.20;80.20;;;;;;5011656;28;20064;-77
2021/05/11 05:09:03;;;;;;;6.32;4.75;;;13.30;79.90;;;;;;5011712;28;20462;-77
2021/05/11 05:11:29;;;;;;;9.95;7.07;;;13.40;79.70;;;;;;5011704;28;20474;-76
2021/05/11 05:13:54;;;;;;;8.13;6.57;;;13.40;79.50;;;;;;5011997;28;20029;-76
2021/05/11 05:16:20;;;;;;;6.88;6.10;;;13.40;79.40;;;;;;5011454;28;20104;-77
2021/05/11 05:18:46;;;;;;;8.13;6.93;;;13.40;79.40;;;;;;5011735;28;20026;-75
2021/05/11 05:21:13;;;;;;;7.90;6.45;;;13.40;79.40;;;;;;5011610;28;20033;-76
2021/05/11 05:23:45;;;;;;;9.05;7.20;;;13.50;79.40;;;;;;5010288;28;20029;-76
2021/05/11 05:26:14;;;;;;;9.13;8.23;;;13.50;79.00;;;;;;5011475;28;20397;-75
2021/05/11 05:28:42;;;;;;;8.38;6.20;;;13.50;78.70;;;;;;5010697;28;20034;-75
2021/05/11 05:31:07;;;;;;;5.60;5.05;;;13.50;78.90;;;;;;5010258;28;20405;-77
2021/05/11 05:33:38;;;;;;;6.07;5.47;;;13.50;78.80;;;;;;5010541;28;20025;-77
2021/05/11 05:36:05;;;;;;;7.13;5.95;;;13.60;78.30;;;;;;5011658;28;20034;-77
2021/05/11 05:38:31;;;;;;;5.20;4.70;;;13.60;77.60;;;;;;5011326;28;20409;-77
2021/05/11 05:41:21;;;;;;;6.13;5.53;;;13.70;77.60;;;;;;5011493;28;20471;-77
2021/05/11 05:43:43;;;;;;;5.00;4.57;;;13.70;77.30;;;;;;5011411;28;20041;-77
2021/05/11 05:46:08;;;;;;;7.28;5.63;;;13.80;76.90;;;;;;5011147;28;20033;-78
2021/05/11 05:48:34;;;;;;;7.07;5.95;;;13.90;76.80;;;;;;5011107;28;20026;-77
2021/05/11 05:51:02;;;;;;;7.32;6.20;;;14.00;76.40;;;;;;5011109;28;20037;-78
2021/05/11 05:53:37;;;;;;;5.35;4.85;;;14.10;76.10;;;;;;5011126;28;20029;-78
2021/05/11 05:56:04;;;;;;;4.20;3.80;;;14.20;75.70;;;;;;5010927;28;20022;-78
2021/05/11 05:58:30;;;;;;;6.60;5.43;;;14.20;75.40;;;;;;5010777;28;20030;-78
2021/05/11 06:01:03;;;;;;;4.25;3.75;;;14.30;74.70;;;;;;5010980;28;20055;-78
2021/05/11 06:03:36;;;;;;;5.50;4.60;;;14.30;74.60;;;;;;5011278;28;20472;-77
2021/05/11 06:06:07;;;;;;;4.57;4.13;;;14.30;74.30;;;;;;5011022;28;20063;-78
2021/05/11 06:08:33;;;;;;;5.95;4.97;;;14.30;74.30;;;;;;5010879;28;20030;-78
2021/05/11 06:11:15;;;;;;;4.53;4.13;;;14.20;74.00;;;;;;5011011;28;20450;-78
2021/05/11 06:13:52;;;;;;;5.00;4.13;;;14.20;74.50;;;;;;5010968;28;20026;-78
2021/05/11 06:19:02;;;;;;;6.47;3.97;;;14.30;74.80;;;;;;5010927;28;20060;-78
2021/05/11 06:21:27;;;;;;;4.63;4.13;;;14.30;74.40;;;;;;5010680;28;20458;-78
2021/05/11 06:23:53;;;;;;;4.75;4.25;;;14.30;74.20;;;;;;5010608;28;20030;-78
2021/05/11 06:26:19;;;;;;;4.88;3.72;;;14.30;74.00;;;;;;5009645;28;20034;-78
2021/05/11 06:28:45;;;;;;;5.00;3.85;;;14.30;73.80;;;;;;5010478;28;20057;-77
2021/05/11 06:31:11;;;;;;;4.10;3.70;;;14.30;73.90;;;;;;5010795;28;20095;-75
2021/05/11 06:33:37;;;;;;;6.40;4.28;;;14.40;74.30;;;;;;5010712;28;20057;-76
2021/05/11 06:36:03;;;;;;;5.13;3.72;;;14.20;74.00;;;;;;5010895;28;20082;-76
2021/05/11 06:38:30;;;;;;;4.10;2.83;;;14.20;74.50;;;;;;5010661;28;20029;-76
2021/05/11 06:40:55;;;;;;;5.18;4.20;;;14.30;74.40;;;;;;5010624;28;20398;-76
2021/05/11 06:43:41;;;;;;;3.60;2.60;;;14.30;74.20;;;;;;5010286;28;20034;-77
2021/05/11 06:54:11;;;;;;;4.47;3.92;;;14.10;75.10;;;;;;5010491;28;20026;-77
2021/05/11 06:56:39;;;;;;;4.22;3.30;;;13.90;75.80;;;;;;5010388;28;20026;-76
2021/05/11 06:59:05;;;;;;;3.40;3.10;;;14.00;76.30;;;;;;5009252;28;20022;-77
2021/05/11 07:01:30;;;;;;;5.07;3.33;;;14.00;76.30;;;;;;5011472;28;20026;-75
2021/05/11 07:03:56;;;;;;;3.10;2.80;;;13.90;76.70;;;;;;5012571;28;20037;-77
2021/05/11 07:06:22;;;;;;;3.80;3.40;;;13.80;76.70;;;;;;5009430;28;20096;-77
2021/05/11 07:08:55;;;;;;;3.67;3.15;;;13.70;77.00;;;;;;5011183;28;20028;-77
2021/05/11 07:13:46;;;;;;;3.70;3.13;;;13.70;77.20;;;;;;5010516;28;20022;-77
2021/05/11 07:16:12;;;;;;;5.35;4.07;;;13.80;77.40;;;;;;5010241;28;20030;-77
2021/05/11 07:18:38;;;;;;;8.45;4.20;;;13.90;76.90;;;;;;5010011;28;20075;-78
2021/05/11 07:21:04;;;;;;;8.00;4.65;;;13.90;76.90;;;;;;5011117;28;20030;-79
2021/05/11 07:23:30;;;;;;;15.85;3.60;;;13.70;77.10;;;;;;5010045;28;20029;-74
2021/05/11 07:30:57;;;;;;;6.57;3.67;;;14.90;76.40;;;;;;5009888;28;20026;-75
2021/05/11 07:33:26;;;;;;;4.40;2.80;;;15.20;73.20;;;;;;5009733;28;20018;-74
2021/05/11 07:35:51;;;;;;;3.50;2.38;;;15.40;72.30;;;;;;5009529;28;20457;-75
2021/05/11 07:38:17;;;;;;;5.28;2.20;;;15.50;70.90;;;;;;5010834;28;20111;-75
2021/05/11 07:40:42;;;;;;;4.28;2.17;;;15.80;70.30;;;;;;5013163;28;20018;-76
2021/05/11 07:43:09;;;;;;;6.95;2.40;;;16.00;68.90;;;;;;5013172;28;20046;-76
2021/05/11 07:45:54;;;;;;;2.47;2.00;;;16.30;67.80;;;;;;5012982;28;20395;-75
2021/05/11 07:48:39;;;;;;;2.20;1.77;;;16.50;66.30;;;;;;5013028;28;20033;-75
2021/05/11 08:04:27;;;;;;;5.20;2.00;;;17.90;60.60;;;;;;5013009;28;20030;-75
2021/05/11 08:15:29;;;;;;;3.85;2.42;;;17.70;63.50;;;;;;5012454;28;20044;-76
2021/05/11 08:23:28;;;;;;;7.95;2.95;;;17.10;63.00;;;;;;5012829;28;20037;-76
2021/05/11 08:28:26;;;;;;;3.60;2.67;;;17.00;64.40;;;;;;5012286;28;20022;-76
2021/05/11 08:30:52;;;;;;;3.03;2.17;;;16.80;64.20;;;;;;5012393;28;20037;-76
2021/05/11 08:33:18;;;;;;;2.35;1.90;;;16.80;65.30;;;;;;5013200;28;20030;-75
2021/05/11 08:35:44;;;;;;;3.45;2.63;;;16.80;66.20;;;;;;5013519;28;20085;-74
2021/05/11 08:38:10;;;;;;;2.28;1.80;;;17.00;65.10;;;;;;5013889;28;20063;-74
2021/05/11 08:40:35;;;;;;;4.10;2.80;;;17.10;64.30;;;;;;5017489;28;20037;-74
2021/05/11 08:43:03;;;;;;;2.75;2.38;;;17.20;63.30;;;;;;5013627;28;20042;-74
2021/05/11 08:45:31;;;;;;;3.67;2.60;;;17.20;63.00;;;;;;5012229;28;20462;-74
2021/05/11 08:47:56;;;;;;;7.60;3.00;;;17.10;63.40;;;;;;5020216;28;20018;-74
2021/05/11 08:50:29;;;;;;;3.63;2.95;;;17.10;63.50;;;;;;5013220;28;20032;-73
2021/05/11 10:48:27;;;;;;;7.05;4.88;;;17.80;58.40;;;;;;5009854;28;20505;-73
2021/05/11 10:50:58;;;;;;;6.90;5.45;;;17.50;60.60;;;;;;5010335;28;20026;-74
2021/05/11 10:54:06;;;;;;;8.82;5.28;;;17.50;61.30;;;;;;5010127;28;20026;-73
2021/05/11 10:56:40;;;;;;;9.23;5.95;;;17.90;61.20;;;;;;5010149;28;20058;-74
2021/05/11 10:59:18;;;;;;;7.25;5.07;;;18.20;59.70;;;;;;5010099;28;20026;-72
2021/05/11 11:01:48;;;;;;;7.60;5.60;;;18.50;58.90;;;;;;5010116;28;20033;-73
2021/05/11 11:04:19;;;;;;;7.80;4.88;;;18.60;58.20;;;;;;5009762;28;20131;-73
2021/05/11 11:07:00;;;;;;;6.53;4.88;;;18.70;58.00;;;;;;5008445;28;20045;-73
2021/05/11 11:09:30;;;;;;;11.65;5.90;;;18.90;56.80;;;;;;5009937;28;20063;-73
2021/05/11 11:11:56;;;;;;;8.07;4.75;;;18.90;56.40;;;;;;5010096;28;20029;-73
2021/05/11 11:14:22;;;;;;;9.02;4.80;;;18.80;57.20;;;;;;5012795;28;20025;-73
2021/05/11 11:16:58;;;;;;;7.07;5.10;;;18.80;56.60;;;;;;5011917;28;20374;-74
2021/05/11 11:19:23;;;;;;;6.60;4.97;;;18.50;57.70;;;;;;5013250;28;20025;-74
2021/05/11 11:24:30;;;;;;;8.02;5.57;;;18.50;57.80;;;;;;5013156;28;20556;-74
2021/05/11 11:26:57;;;;;;;8.80;5.43;;;18.10;58.40;;;;;;5011670;28;20424;-75
2021/05/11 11:29:24;;;;;;;9.52;5.72;;;17.90;59.70;;;;;;5010948;28;20026;-74
2021/05/11 11:31:51;;;;;;;8.02;5.30;;;17.70;60.50;;;;;;5010806;28;20029;-75
2021/05/11 11:34:39;;;;;;;6.88;4.70;;;17.90;60.00;;;;;;5012893;28;20386;-74
2021/05/11 11:37:12;;;;;;;6.55;5.30;;;18.00;59.50;;;;;;5012878;28;20022;-74
2021/05/11 11:39:50;;;;;;;6.55;4.50;;;17.80;60.00;;;;;;5012737;28;20431;-74
2021/05/11 11:42:21;;;;;;;10.55;6.72;;;17.60;60.70;;;;;;5012603;28;20463;-75
2021/05/11 11:44:51;;;;;;;8.93;5.90;;;17.50;61.10;;;;;;5012476;28;20054;-74
2021/05/11 11:47:17;;;;;;;7.10;4.93;;;17.50;61.60;;;;;;5012732;28;20042;-74
2021/05/11 11:49:48;;;;;;;8.07;5.70;;;17.40;61.50;;;;;;5012702;28;20030;-75
2021/05/11 11:52:21;;;;;;;7.85;5.57;;;17.40;61.70;;;;;;5012416;28;20032;-75
2021/05/11 11:57:57;;;;;;;6.88;5.00;;;17.40;61.60;;;;;;5046102;28;20048;-74
2021/05/11 12:00:27;;;;;;;6.90;4.55;;;17.50;61.40;;;;;;5012820;28;20030;-74
2021/05/11 12:03:07;;;;;;;6.40;4.60;;;17.60;61.00;;;;;;5012820;28;20124;-75
2021/05/11 12:05:58;;;;;;;6.57;4.07;;;17.90;60.00;;;;;;5012472;28;20084;-73
2021/05/11 12:08:31;;;;;;;7.80;4.85;;;18.10;59.60;;;;;;5012344;28;20029;-73
2021/05/11 12:11:00;;;;;;;10.70;5.68;;;18.30;59.00;;;;;;5012942;28;20022;-74
2021/05/11 12:13:31;;;;;;;6.30;4.47;;;18.40;57.90;;;;;;5012513;28;20210;-74
2021/05/11 12:16:15;;;;;;;7.07;4.50;;;18.20;58.20;;;;;;5012515;28;20053;-74
2021/05/11 12:21:31;;;;;;;8.32;3.95;;;18.40;58.20;;;;;;5012327;28;20108;-74
2021/05/11 12:24:08;;;;;;;4.28;3.70;;;18.30;58.20;;;;;;5011953;28;20034;-74
2021/05/11 12:26:35;;;;;;;5.18;3.85;;;18.10;57.90;;;;;;5012084;28;20113;-73
2021/05/11 12:29:12;;;;;;;4.47;3.40;;;18.00;58.00;;;;;;5012317;28;20526;-74
2021/05/11 12:31:41;;;;;;;7.28;3.85;;;18.00;58.20;;;;;;5011268;28;20030;-74
2021/05/11 12:34:12;;;;;;;10.35;4.65;;;17.90;58.80;;;;;;5012499;28;20465;-74
2021/05/11 12:36:44;;;;;;;5.93;3.88;;;17.60;60.10;;;;;;5012252;28;20109;-74
2021/05/11 12:39:21;;;;;;;6.72;4.50;;;17.50;60.90;;;;;;5012352;28;20045;-74
2021/05/11 12:41:46;;;;;;;4.75;3.25;;;17.50;61.00;;;;;;5012200;28;20363;-74
2021/05/11 12:44:29;;;;;;;4.80;3.70;;;17.50;60.60;;;;;;5012139;28;20061;-74
2021/05/11 12:46:59;;;;;;;4.80;3.45;;;17.50;60.70;;;;;;5012032;28;20390;-74
2021/05/11 12:49:25;;;;;;;5.80;3.88;;;17.40;61.00;;;;;;5012010;28;20029;-75
2021/05/11 12:51:55;;;;;;;4.53;3.65;;;17.40;61.00;;;;;;5012276;28;20026;-74
2021/05/11 12:54:29;;;;;;;6.68;3.65;;;17.30;61.20;;;;;;5012106;28;20022;-73
2021/05/11 12:57:17;;;;;;;6.57;2.90;;;17.30;61.90;;;;;;5012085;28;20496;-74
2021/05/11 13:02:45;;;;;;;4.68;2.63;;;15.90;71.30;;;;;;5011991;28;20044;-73
2021/05/11 13:16:26;;;;;;;2.78;2.33;;;14.60;81.20;;;;;;5011845;28;20034;-73
2021/05/11 13:21:42;;;;;;;2.95;2.50;;;14.20;82.70;;;;;;5011651;28;20526;-73
2021/05/11 13:27:00;;;;;;;2.53;2.15;;;14.00;84.30;;;;;;5011439;28;20079;-73
2021/05/11 13:29:37;;;;;;;3.97;2.05;;;13.90;86.40;;;;;;5011535;28;20029;-73
2021/05/11 13:32:06;;;;;;;2.83;1.85;;;13.90;85.40;;;;;;5012414;28;20030;-73
2021/05/11 13:34:34;;;;;;;2.53;1.83;;;13.80;86.10;;;;;;5015281;28;20025;-74
2021/05/11 13:37:01;;;;;;;2.75;1.92;;;13.70;86.50;;;;;;5009844;28;20037;-74
2021/05/11 13:39:27;;;;;;;1.75;1.35;;;13.60;87.00;;;;;;5015174;28;20071;-74
2021/05/11 13:41:53;;;;;;;2.05;1.50;;;13.70;86.40;;;;;;5017212;28;20030;-74
2021/05/11 13:44:18;;;;;;;1.50;1.27;;;13.40;88.30;;;;;;5011075;28;20490;-74
2021/05/11 13:46:44;;;;;;;1.33;1.23;;;13.50;87.40;;;;;;5010274;28;20041;-74
2021/05/11 13:49:10;;;;;;;1.90;1.63;;;13.50;87.40;;;;;;5012216;28;20026;-74
2021/05/11 13:51:35;;;;;;;2.33;1.73;;;13.50;87.00;;;;;;5011207;28;20025;-74
2021/05/11 13:54:04;;;;;;;3.30;1.63;;;13.60;86.90;;;;;;5011165;28;20033;-74
2021/05/11 14:04:25;;;;;;;2.30;2.10;;;13.40;87.00;;;;;;5010802;28;20076;-74
2021/05/11 14:06:51;;;;;;;2.47;2.25;;;13.30;86.50;;;;;;5010950;28;20491;-74
2021/05/11 14:09:17;;;;;;;4.47;3.08;;;13.10;86.80;;;;;;5010883;28;20030;-75
2021/05/11 14:11:43;;;;;;;2.80;1.98;;;13.10;86.50;;;;;;5010756;28;20034;-75
2021/05/11 14:14:10;;;;;;;2.05;1.60;;;13.20;87.30;;;;;;5010732;28;20049;-75
2021/05/11 14:16:37;;;;;;;2.05;1.60;;;13.20;86.20;;;;;;5009882;28;20041;-74
2021/05/11 14:19:03;;;;;;;2.40;2.20;;;13.20;85.60;;;;;;5008793;28;20112;-73
2021/05/11 14:21:29;;;;;;;4.13;2.25;;;13.10;86.10;;;;;;5010015;28;20493;-73
2021/05/11 14:23:56;;;;;;;3.55;2.33;;;13.20;86.30;;;;;;5010012;28;20137;-74
2021/05/11 14:26:23;;;;;;;4.40;2.63;;;13.10;86.80;;;;;;5010072;28;20038;-73
2021/05/11 14:28:49;;;;;;;2.30;2.10;;;13.20;87.00;;;;;;5009221;28;20022;-73
2021/05/11 14:31:15;;;;;;;3.78;2.22;;;13.20;86.30;;;;;;5010190;28;20030;-73
2021/05/11 14:33:41;;;;;;;2.55;1.95;;;13.30;87.30;;;;;;5009991;28;20101;-73
2021/05/11 14:36:07;;;;;;;3.35;2.72;;;13.30;87.00;;;;;;5010451;28;20105;-74
2021/05/11 14:38:34;;;;;;;4.57;3.10;;;13.40;86.50;;;;;;5010367;28;20045;-74
2021/05/11 14:41:03;;;;;;;6.65;3.30;;;13.50;86.40;;;;;;5010090;28;20466;-73
2021/05/11 14:43:32;;;;;;;4.63;2.78;;;13.50;85.70;;;;;;5009632;28;20454;-72
2021/05/11 14:45:59;;;;;;;6.90;3.72;;;13.50;84.40;;;;;;5010162;28;20037;-73
2021/05/11 14:48:26;;;;;;;4.82;3.20;;;13.40;85.30;;;;;;5010534;28;20026;-74
2021/05/11 14:50:52;;;;;;;5.10;2.92;;;13.20;85.90;;;;;;5010201;28;20058;-73
2021/05/11 14:53:18;;;;;;;5.10;2.50;;;13.20;86.10;;;;;;5009810;28;20053;-74
2021/05/11 14:55:44;;;;;;;2.00;1.80;;;13.30;84.10;;;;;;5009736;28;20073;-74
2021/05/11 14:58:09;;;;;;;2.15;1.63;;;13.30;83.10;;;;;;5010162;28;20554;-74
2021/05/11 15:00:36;;;;;;;1.63;1.13;;;13.30;81.70;;;;;;5010060;28;20052;-73
2021/05/11 15:03:01;;;;;;;3.33;2.53;;;13.10;80.90;;;;;;5009935;28;20037;-73
2021/05/11 15:05:27;;;;;;;2.28;1.90;;;13.10;80.10;;;;;;5009829;28;20506;-73
2021/05/11 15:07:54;;;;;;;0.80;0.80;;;12.90;81.40;;;;;;5009969;28;20470;-74
2021/05/11 15:10:19;;;;;;;1.35;1.08;;;12.90;81.50;;;;;;5009646;28;20394;-74
2021/05/11 15:12:45;;;;;;;1.58;1.08;;;13.00;81.70;;;;;;5010000;28;20022;-74
2021/05/11 15:15:15;;;;;;;1.10;1.00;;;13.00;82.30;;;;;;5009852;28;20105;-73
2021/05/11 15:20:10;;;;;;;1.40;0.75;;;13.10;82.10;;;;;;5009731;28;20151;-74
2021/05/11 15:22:35;;;;;;;1.20;0.90;;;13.20;82.30;;;;;;5009513;28;20470;-75
2021/05/11 15:25:01;;;;;;;0.88;0.88;;;13.30;82.30;;;;;;5009496;28;20040;-75
2021/05/11 15:27:28;;;;;;;2.00;0.90;;;13.40;81.10;;;;;;5009641;28;20108;-75
2021/05/11 15:29:54;;;;;;;2.65;1.10;;;13.40;80.90;;;;;;5009342;28;20022;-75
2021/05/11 15:32:40;;;;;;;1.40;1.00;;;13.40;80.30;;;;;;5009512;28;20130;-74
2021/05/11 15:35:11;;;;;;;1.95;1.20;;;13.30;81.70;;;;;;5009371;28;20026;-75
2021/05/11 15:37:37;;;;;;;0.82;0.77;;;13.30;82.20;;;;;;5009287;28;20421;-74
2021/05/11 15:40:16;;;;;;;1.58;1.30;;;13.20;82.50;;;;;;5009423;28;20026;-75
2021/05/11 15:42:42;;;;;;;2.15;1.10;;;13.20;82.40;;;;;;5009293;28;20026;-77
2021/05/11 15:45:09;;;;;;;2.40;1.55;;;13.20;82.80;;;;;;5009181;28;20476;-75
2021/05/11 15:47:38;;;;;;;2.90;1.13;;;13.10;84.40;;;;;;5009238;28;20474;-77
2021/05/11 15:50:05;;;;;;;1.30;1.13;;;12.90;84.80;;;;;;5009298;28;20428;-77
2021/05/11 15:52:31;;;;;;;1.95;1.20;;;13.00;85.20;;;;;;5009131;28;20022;-76
2021/05/11 15:54:56;;;;;;;3.33;0.93;;;13.10;84.40;;;;;;5009224;28;20444;-76
2021/05/11 15:57:22;;;;;;;2.08;1.30;;;13.10;84.60;;;;;;5008989;28;20022;-76
2021/05/11 15:59:47;;;;;;;2.13;1.10;;;13.10;84.40;;;;;;5010928;28;20029;-77
2021/05/11 16:02:13;;;;;;;2.20;1.40;;;13.20;84.50;;;;;;5011114;28;20029;-76
2021/05/11 16:04:39;;;;;;;3.22;1.40;;;13.20;84.40;;;;;;5011747;28;20033;-76
2021/05/11 16:07:05;;;;;;;3.25;2.25;;;13.10;84.30;;;;;;5011878;28;20109;-76
2021/05/11 16:09:31;;;;;;;3.90;2.65;;;13.20;84.80;;;;;;5011868;28;20056;-76
2021/05/11 16:11:57;;;;;;;1.77;1.60;;;13.20;85.70;;;;;;5011917;28;20026;-76
2021/05/11 16:14:23;;;;;;;2.38;1.77;;;13.10;84.90;;;;;;5012058;28;20018;-74
2021/05/11 16:16:49;;;;;;;2.10;1.85;;;13.20;84.50;;;;;;5012230;28;20480;-75
2021/05/11 16:19:14;;;;;;;3.58;1.90;;;13.20;84.60;;;;;;5011516;28;20029;-75
2021/05/11 16:21:40;;;;;;;3.53;1.58;;;13.30;84.80;;;;;;5012052;28;20030;-76
2021/05/11 16:24:06;;;;;;;2.72;2.00;;;13.30;84.80;;;;;;5012961;28;20029;-75
2021/05/11 16:26:31;;;;;;;3.28;2.20;;;13.40;84.90;;;;;;5012586;28;20044;-75
2021/05/11 16:28:57;;;;;;;4.10;2.55;;;13.40;84.90;;;;;;5012201;28;20030;-75
2021/05/11 16:31:24;;;;;;;3.53;2.28;;;13.40;84.80;;;;;;5010762;28;20037;-75
2021/05/11 16:33:50;;;;;;;4.25;2.30;;;13.40;84.80;;;;;;5012037;28;20079;-75
2021/05/11 16:36:16;;;;;;;4.85;2.42;;;13.40;84.80;;;;;;5011883;28;20094;-75
2021/05/11 16:38:42;;;;;;;4.28;2.22;;;13.50;84.90;;;;;;5010227;28;20396;-75
2021/05/11 16:41:08;;;;;;;2.50;1.80;;;13.60;84.70;;;;;;5011634;28;20036;-75
2021/05/11 16:43:34;;;;;;;1.48;1.38;;;13.60;84.10;;;;;;5011713;28;20045;-75
2021/05/11 16:46:02;;;;;;;4.25;1.90;;;13.60;83.90;;;;;;5011747;28;20033;-75
2021/05/11 16:48:29;;;;;;;2.65;1.60;;;13.60;84.00;;;;;;5012023;28;20431;-75
2021/05/11 16:50:54;;;;;;;3.10;1.42;;;13.60;84.30;;;;;;5012103;28;20390;-75
2021/05/11 16:53:20;;;;;;;4.22;1.10;;;13.50;84.40;;;;;;5011850;28;20018;-75
2021/05/11 16:55:45;;;;;;;2.33;1.40;;;13.50;84.30;;;;;;5012546;28;20026;-75
2021/05/11 16:58:12;;;;;;;1.90;1.52;;;13.50;84.30;;;;;;5011664;28;20184;-75
2021/05/11 17:00:39;;;;;;;1.98;1.48;;;13.50;84.40;;;;;;5012016;28;20071;-76
2021/05/11 17:03:05;;;;;;;2.55;1.20;;;13.50;84.30;;;;;;5011465;28;20029;-76
2021/05/11 17:05:31;;;;;;;1.50;1.40;;;13.50;84.40;;;;;;5011614;28;20037;-76